createdAt,value
2023-05-01T00:01:46.911Z,99.90
2023-05-01T00:04:15.218Z,99.90
2023-05-01T00:06:44.868Z,99.90
2023-05-01T00:09:12.983Z,99.90
2023-05-01T00:11:41.051Z,99.90
2023-05-01T00:14:09.656Z,99.90
2023-05-01T00:16:38.149Z,99.90
2023-05-01T00:19:06.408Z,99.90
2023-05-01T00:21:34.379Z,99.90
2023-05-01T00:24:03.669Z,99.90
2023-05-01T00:26:32.162Z,99.90
2023-05-01T00:29:00.216Z,99.90
2023-05-01T00:31:28.425Z,99.90
2023-05-01T00:33:56.466Z,99.90
2023-05-01T00:36:24.781Z,99.90
2023-05-01T00:38:52.975Z,99.90
2023-05-01T00:41:22.320Z,99.90
2023-05-01T00:43:50.491Z,99.90
2023-05-01T00:46:19.198Z,99.90
2023-05-01T00:48:47.332Z,99.90
2023-05-01T00:51:15.937Z,99.90
2023-05-01T00:53:44.753Z,99.90
2023-05-01T00:56:13.099Z,99.90
2023-05-01T00:58:42.657Z,99.90
2023-05-01T01:01:10.758Z,99.90
2023-05-01T01:03:38.879Z,99.90
2023-05-01T01:06:11.640Z,99.90
2023-05-01T01:08:43.442Z,99.90
2023-05-01T01:11:21.679Z,99.90
2023-05-01T01:13:59.149Z,99.90
2023-05-01T01:16:34.029Z,99.90
2023-05-01T01:19:17.097Z,99.90
2023-05-01T01:21:50.828Z,99.90
2023-05-01T01:24:47.413Z,99.90
2023-05-01T01:27:31.993Z,99.90
2023-05-01T01:30:31.679Z,99.90
2023-05-01T01:33:23.594Z,99.90
2023-05-01T01:35:57.460Z,99.90
2023-05-01T01:38:31.228Z,99.90
2023-05-01T01:41:07.443Z,99.90
2023-05-01T01:43:53.896Z,99.90
2023-05-01T01:46:23.658Z,99.90
2023-05-01T01:48:56.377Z,99.90
2023-05-01T01:51:27.963Z,99.90
2023-05-01T01:54:01.433Z,99.90
2023-05-01T01:56:33.092Z,99.90
2023-05-01T01:59:03.027Z,99.90
2023-05-01T02:01:32.109Z,99.90
2023-05-01T02:04:01.872Z,99.90
2023-05-01T02:06:34.714Z,99.90
2023-05-01T02:09:06.482Z,99.90
2023-05-01T02:11:37.158Z,99.90
2023-05-01T02:14:06.910Z,99.90
2023-05-01T02:16:36.030Z,99.90
2023-05-01T02:19:06.042Z,99.90
2023-05-01T02:21:37.916Z,99.90
2023-05-01T02:24:06.527Z,99.90
2023-05-01T02:26:39.815Z,99.90
2023-05-01T02:29:08.183Z,99.90
2023-05-01T02:31:36.388Z,99.90
2023-05-01T02:34:05.424Z,99.90
2023-05-01T02:36:35.307Z,99.90
2023-05-01T02:39:03.644Z,99.90
2023-05-01T02:41:33.186Z,99.90
2023-05-01T02:44:04.208Z,99.90
2023-05-01T02:46:34.413Z,99.90
2023-05-01T02:49:04.516Z,99.90
2023-05-01T02:51:33.116Z,99.90
2023-05-01T02:54:03.264Z,99.90
2023-05-01T02:56:32.651Z,99.90
2023-05-01T02:59:00.687Z,99.90
2023-05-01T03:01:29.876Z,99.90
2023-05-01T03:03:58.224Z,99.90
2023-05-01T03:06:29.053Z,99.90
2023-05-01T03:08:57.389Z,99.90
2023-05-01T03:11:27.096Z,99.90
2023-05-01T03:13:55.260Z,99.90
2023-05-01T03:16:23.625Z,99.90
2023-05-01T03:18:51.668Z,99.90
2023-05-01T03:21:19.793Z,99.90
2023-05-01T03:23:47.804Z,99.90
2023-05-01T03:26:16.151Z,99.90
2023-05-01T03:28:45.807Z,99.90
2023-05-01T03:31:14.404Z,99.90
2023-05-01T03:33:42.794Z,99.90
2023-05-01T03:36:11.438Z,99.90
2023-05-01T03:38:39.767Z,99.90
2023-05-01T03:41:10.843Z,99.90
2023-05-01T03:44:09.988Z,99.90
2023-05-01T03:46:44.510Z,99.90
2023-05-01T03:49:19.048Z,99.90
2023-05-01T03:51:49.372Z,99.90
2023-05-01T03:54:17.776Z,99.90
2023-05-01T03:56:58.591Z,99.90
2023-05-01T03:59:28.321Z,99.90
2023-05-01T04:01:57.254Z,99.90
2023-05-01T04:04:29.636Z,99.90
2023-05-01T04:06:59.271Z,99.90
2023-05-01T04:09:27.456Z,99.90
2023-05-01T04:11:55.468Z,99.90
2023-05-01T04:14:23.872Z,99.90
2023-05-01T04:16:53.343Z,99.90
2023-05-01T04:19:21.558Z,99.90
2023-05-01T04:21:54.331Z,99.90
2023-05-01T04:24:22.626Z,99.90
2023-05-01T04:26:50.809Z,99.90
2023-05-01T04:29:18.901Z,99.90
2023-05-01T04:31:47.110Z,99.90
2023-05-01T04:34:16.565Z,99.90
2023-05-01T04:36:44.730Z,99.90
2023-05-01T04:39:14.001Z,99.90
2023-05-01T04:41:42.418Z,99.90
2023-05-01T04:44:10.492Z,99.90
2023-05-01T04:46:38.552Z,99.90
2023-05-01T04:49:06.592Z,99.90
2023-05-01T04:51:35.960Z,99.90
2023-05-01T04:54:05.267Z,99.90
2023-05-01T04:56:35.824Z,99.90
2023-05-01T04:59:03.822Z,99.90
2023-05-01T05:01:32.980Z,99.90
2023-05-01T05:04:01.396Z,99.90
2023-05-01T05:06:31.354Z,99.90
2023-05-01T05:09:00.985Z,99.90
2023-05-01T05:11:29.013Z,99.90
2023-05-01T05:14:04.012Z,99.90
2023-05-01T05:16:32.265Z,99.90
2023-05-01T05:19:00.327Z,99.90
2023-05-01T05:21:30.159Z,99.90
2023-05-01T05:24:01.078Z,99.90
2023-05-01T05:26:29.275Z,99.90
2023-05-01T05:29:01.405Z,99.90
2023-05-01T05:31:29.390Z,99.90
2023-05-01T05:33:57.421Z,99.90
2023-05-01T05:36:27.661Z,99.90
2023-05-01T05:38:55.870Z,99.90
2023-05-01T05:41:25.197Z,99.90
2023-05-01T05:43:57.965Z,99.90
2023-05-01T05:46:26.370Z,99.90
2023-05-01T05:48:54.391Z,99.90
2023-05-01T05:51:22.383Z,99.90
2023-05-01T05:53:50.484Z,99.90
2023-05-01T05:56:18.573Z,99.90
2023-05-01T05:58:48.326Z,99.90
2023-05-01T06:01:16.338Z,99.90
2023-05-01T06:03:44.450Z,99.90
2023-05-01T06:06:12.804Z,99.90
2023-05-01T06:08:41.254Z,99.90
2023-05-01T06:11:13.314Z,99.90
2023-05-01T06:13:41.326Z,99.90
2023-05-01T06:16:11.077Z,99.90
2023-05-01T06:18:39.277Z,99.90
2023-05-01T06:21:07.371Z,99.90
2023-05-01T06:23:36.187Z,99.90
2023-05-01T06:26:23.208Z,99.90
2023-05-01T06:28:51.583Z,99.90
2023-05-01T06:31:21.368Z,99.90
2023-05-01T06:33:53.657Z,99.90
2023-05-01T06:36:44.612Z,99.90
2023-05-01T06:39:13.012Z,99.90
2023-05-01T06:41:41.107Z,99.90
2023-05-01T06:44:09.103Z,99.90
2023-05-01T06:46:40.339Z,99.90
2023-05-01T06:49:08.504Z,99.90
2023-05-01T06:51:36.712Z,99.90
2023-05-01T06:54:05.617Z,99.90
2023-05-01T06:56:34.453Z,99.90
2023-05-01T06:59:02.496Z,99.90
2023-05-01T07:01:32.653Z,99.90
2023-05-01T07:04:03.616Z,99.90
2023-05-01T07:06:32.455Z,99.90
2023-05-01T07:09:00.606Z,99.90
2023-05-01T07:11:28.648Z,99.90
2023-05-01T07:13:56.640Z,99.90
2023-05-01T07:16:24.722Z,99.90
2023-05-01T07:18:52.749Z,99.90
2023-05-01T07:21:22.138Z,99.90
2023-05-01T07:23:50.139Z,99.90
2023-05-01T07:26:18.210Z,99.90
2023-05-01T07:28:46.160Z,99.90
2023-05-01T07:31:14.168Z,99.90
2023-05-01T07:33:42.852Z,99.60
2023-05-01T07:36:11.301Z,99.90
2023-05-01T07:38:40.694Z,99.40
2023-05-01T07:41:08.681Z,99.60
2023-05-01T07:43:37.020Z,99.90
2023-05-01T07:46:05.544Z,98.40
2023-05-01T07:48:34.826Z,99.90
2023-05-01T07:51:03.847Z,99.80
2023-05-01T07:53:31.991Z,97.90
2023-05-01T07:56:08.773Z,99.50
2023-05-01T07:58:38.000Z,96.70
2023-05-01T08:01:07.617Z,97.40
2023-05-01T08:03:35.920Z,99.40
2023-05-01T08:06:04.083Z,96.90
2023-05-01T08:08:32.105Z,97.70
2023-05-01T08:11:00.783Z,95.90
2023-05-01T08:13:30.228Z,97.00
2023-05-01T08:16:02.148Z,95.50
2023-05-01T08:18:30.531Z,94.80
2023-05-01T08:20:58.508Z,93.60
2023-05-01T08:23:26.623Z,94.30
2023-05-01T08:25:54.587Z,95.70
2023-05-01T08:28:24.592Z,94.70
2023-05-01T08:30:53.933Z,96.70
2023-05-01T08:33:21.986Z,96.40
2023-05-01T08:35:50.155Z,95.50
2023-05-01T08:38:18.271Z,94.80
2023-05-01T08:40:52.648Z,93.90
2023-05-01T08:43:20.815Z,95.10
2023-05-01T08:45:50.044Z,95.50
2023-05-01T08:48:20.631Z,94.90
2023-05-01T08:50:48.830Z,94.90
2023-05-01T08:53:18.518Z,94.40
2023-05-01T08:55:47.632Z,94.30
2023-05-01T08:58:15.962Z,94.80
2023-05-01T09:00:45.263Z,94.30
2023-05-01T09:03:14.596Z,94.10
2023-05-01T09:05:44.136Z,94.20
2023-05-01T09:08:12.138Z,94.20
2023-05-01T09:10:46.087Z,94.70
2023-05-01T09:13:14.040Z,95.10
2023-05-01T09:15:42.168Z,96.20
2023-05-01T09:18:10.445Z,96.00
2023-05-01T09:20:38.788Z,95.10
2023-05-01T09:23:08.174Z,92.50
2023-05-01T09:25:36.332Z,94.90
2023-05-01T09:28:07.039Z,93.60
2023-05-01T09:30:36.539Z,94.80
2023-05-01T09:33:09.383Z,91.10
2023-05-01T09:35:51.460Z,91.60
2023-05-01T09:38:22.270Z,93.00
2023-05-01T09:40:50.816Z,90.90
2023-05-01T09:43:27.015Z,91.70
2023-05-01T09:46:03.727Z,89.20
2023-05-01T09:48:35.056Z,92.10
2023-05-01T09:51:21.581Z,90.80
2023-05-01T09:53:52.230Z,91.80
2023-05-01T09:56:21.296Z,90.40
2023-05-01T09:58:51.893Z,91.50
2023-05-01T10:01:20.247Z,91.30
2023-05-01T10:03:55.545Z,92.50
2023-05-01T10:06:29.963Z,88.40
2023-05-01T10:08:59.375Z,88.40
2023-05-01T10:11:27.931Z,90.70
2023-05-01T10:14:09.741Z,86.80
2023-05-01T10:16:39.255Z,88.30
2023-05-01T10:19:07.744Z,86.70
2023-05-01T10:21:36.382Z,92.10
2023-05-01T10:24:07.860Z,89.60
2023-05-01T10:26:36.217Z,87.80
2023-05-01T10:29:05.015Z,88.80
2023-05-01T10:31:33.608Z,87.70
2023-05-01T10:34:02.552Z,91.30
2023-05-01T10:36:37.579Z,88.60
2023-05-01T10:39:07.180Z,86.60
2023-05-01T10:42:08.460Z,85.70
2023-05-01T10:44:36.670Z,92.40
2023-05-01T10:47:42.865Z,84.90
2023-05-01T10:50:12.293Z,89.70
2023-05-01T10:53:18.118Z,85.00
2023-05-01T10:55:49.248Z,88.60
2023-05-01T10:59:05.871Z,81.20
2023-05-01T11:01:36.179Z,86.50
2023-05-01T11:04:08.105Z,82.40
2023-05-01T11:06:37.831Z,86.50
2023-05-01T11:09:40.268Z,87.20
2023-05-01T11:12:11.371Z,83.90
2023-05-01T11:15:05.838Z,81.60
2023-05-01T11:17:46.824Z,83.60
2023-05-01T11:20:48.647Z,85.90
2023-05-01T11:23:21.437Z,84.30
2023-05-01T11:25:51.114Z,84.70
2023-05-01T11:28:25.611Z,84.90
2023-05-01T11:30:55.037Z,89.60
2023-05-01T11:33:26.196Z,86.40
2023-05-01T11:36:01.287Z,78.70
2023-05-01T11:38:29.658Z,84.00
2023-05-01T11:41:01.057Z,81.10
2023-05-01T11:43:30.633Z,79.90
2023-05-01T11:46:04.007Z,83.00
2023-05-01T11:48:32.870Z,84.10
2023-05-01T11:51:12.771Z,88.50
2023-05-01T11:53:40.842Z,84.90
2023-05-01T11:56:26.427Z,79.60
2023-05-01T11:58:58.553Z,81.90
2023-05-01T12:01:35.518Z,84.70
2023-05-01T12:04:03.900Z,80.30
2023-05-01T12:06:40.618Z,85.70
2023-05-01T12:09:09.287Z,80.40
2023-05-01T12:11:38.427Z,82.80
2023-05-01T12:14:08.422Z,86.80
2023-05-01T12:16:37.018Z,80.80
2023-05-01T12:19:05.563Z,80.30
2023-05-01T12:21:34.066Z,79.20
2023-05-01T12:24:09.349Z,84.40
2023-05-01T12:26:37.519Z,79.20
2023-05-01T12:29:11.550Z,79.20
2023-05-01T12:31:48.323Z,80.70
2023-05-01T12:34:16.640Z,85.40
2023-05-01T12:36:54.258Z,84.10
2023-05-01T12:39:23.511Z,81.70
2023-05-01T12:41:53.091Z,84.20
2023-05-01T12:44:24.464Z,81.00
2023-05-01T12:46:57.105Z,84.70
2023-05-01T12:49:26.097Z,87.00
2023-05-01T12:51:56.264Z,87.40
2023-05-01T12:54:25.848Z,87.60
2023-05-01T12:56:54.424Z,88.00
2023-05-01T12:59:25.754Z,90.10
2023-05-01T13:02:01.390Z,87.60
2023-05-01T13:04:29.924Z,89.00
2023-05-01T13:06:58.766Z,90.00
2023-05-01T13:09:28.110Z,84.20
2023-05-01T13:12:00.511Z,86.60
2023-05-01T13:14:30.800Z,86.50
2023-05-01T13:16:58.894Z,88.30
2023-05-01T13:19:28.778Z,86.70
2023-05-01T13:21:57.968Z,86.40
2023-05-01T13:24:36.614Z,89.30
2023-05-01T13:27:05.809Z,90.10
2023-05-01T13:29:35.458Z,87.70
2023-05-01T13:32:05.735Z,87.90
2023-05-01T13:34:35.282Z,90.20
2023-05-01T13:37:03.627Z,91.00
2023-05-01T13:39:31.626Z,90.60
2023-05-01T13:41:59.584Z,91.00
2023-05-01T13:44:29.123Z,90.60
2023-05-01T13:46:58.475Z,90.80
2023-05-01T13:49:26.993Z,90.60
2023-05-01T13:51:55.604Z,91.00
2023-05-01T13:54:24.348Z,90.30
2023-05-01T13:56:53.181Z,91.30
2023-05-01T13:59:21.734Z,90.50
2023-05-01T14:01:49.896Z,90.70
2023-05-01T14:04:21.265Z,91.10
2023-05-01T14:06:49.981Z,90.70
2023-05-01T14:09:19.412Z,92.50
2023-05-01T14:11:48.816Z,92.10
2023-05-01T14:14:18.152Z,92.50
2023-05-01T14:16:52.087Z,92.10
2023-05-01T14:19:21.612Z,92.80
2023-05-01T14:21:49.710Z,91.90
2023-05-01T14:24:18.955Z,91.50
2023-05-01T14:26:50.172Z,93.10
2023-05-01T14:29:24.893Z,92.10
2023-05-01T14:31:54.329Z,92.20
2023-05-01T14:34:23.822Z,92.00
2023-05-01T14:36:51.854Z,93.00
2023-05-01T14:39:20.136Z,93.50
2023-05-01T14:41:49.054Z,93.00
2023-05-01T14:44:19.157Z,93.30
2023-05-01T14:46:51.258Z,92.80
2023-05-01T14:49:21.181Z,92.10
2023-05-01T14:51:50.580Z,93.00
2023-05-01T14:54:19.060Z,93.50
2023-05-01T14:56:48.745Z,92.60
2023-05-01T14:59:17.205Z,94.40
2023-05-01T15:01:45.201Z,93.10
2023-05-01T15:04:14.405Z,93.60
2023-05-01T15:06:42.636Z,93.60
2023-05-01T15:09:12.784Z,94.30
2023-05-01T15:11:41.477Z,94.00
2023-05-01T15:14:09.755Z,93.50
2023-05-01T15:16:37.780Z,93.50
2023-05-01T15:19:05.960Z,93.60
2023-05-01T15:21:33.960Z,93.40
2023-05-01T15:24:02.029Z,94.90
2023-05-01T15:26:31.731Z,93.90
2023-05-01T15:29:00.112Z,94.20
2023-05-01T15:31:28.365Z,93.50
2023-05-01T15:33:57.465Z,93.90
2023-05-01T15:36:25.751Z,94.60
2023-05-01T15:38:54.034Z,94.50
2023-05-01T15:41:22.369Z,94.70
2023-05-01T15:43:51.999Z,95.10
2023-05-01T15:46:22.737Z,95.20
2023-05-01T15:48:50.891Z,94.50
2023-05-01T15:51:19.889Z,94.00
2023-05-01T15:53:47.875Z,94.30
2023-05-01T15:56:16.020Z,93.70
2023-05-01T15:58:44.053Z,93.30
2023-05-01T16:01:14.479Z,93.00
2023-05-01T16:03:46.414Z,93.00
2023-05-01T16:06:15.684Z,93.40
2023-05-01T16:08:44.409Z,93.80
2023-05-01T16:11:13.252Z,93.30
2023-05-01T16:13:41.942Z,93.30
2023-05-01T16:16:11.445Z,93.60
2023-05-01T16:18:42.749Z,93.10
2023-05-01T16:21:11.431Z,92.50
2023-05-01T16:23:40.089Z,93.10
2023-05-01T16:26:08.248Z,93.30
2023-05-01T16:28:36.544Z,94.10
2023-05-01T16:31:10.500Z,94.30
2023-05-01T16:33:46.633Z,93.70
2023-05-01T16:36:17.256Z,93.80
2023-05-01T16:38:46.731Z,94.00
2023-05-01T16:41:18.427Z,93.40
2023-05-01T16:43:47.214Z,95.10
2023-05-01T16:46:17.168Z,94.40
2023-05-01T16:48:46.742Z,94.00
2023-05-01T16:51:14.721Z,94.00
2023-05-01T16:53:42.832Z,94.10
2023-05-01T16:56:11.040Z,94.10
2023-05-01T16:58:39.131Z,94.70
2023-05-01T17:01:07.206Z,95.20
2023-05-01T17:03:36.864Z,95.70
2023-05-01T17:06:06.444Z,95.50
2023-05-01T17:08:34.454Z,95.40
2023-05-01T17:11:02.706Z,95.60
2023-05-01T17:13:31.014Z,96.30
2023-05-01T17:15:59.627Z,95.50
2023-05-01T17:18:27.677Z,96.30
2023-05-01T17:20:55.773Z,95.70
2023-05-01T17:23:28.029Z,98.00
2023-05-01T17:25:56.192Z,99.70
2023-05-01T17:28:24.336Z,99.90
2023-05-01T17:30:52.651Z,99.90
2023-05-01T17:33:20.804Z,99.90
2023-05-01T17:35:49.357Z,99.90
2023-05-01T17:38:17.570Z,99.90
2023-05-01T17:40:47.266Z,99.90
2023-05-01T17:43:15.317Z,99.90
2023-05-01T17:45:45.389Z,99.90
2023-05-01T17:48:13.849Z,99.90
2023-05-01T17:50:42.141Z,99.90
2023-05-01T17:53:10.846Z,99.90
2023-05-01T17:55:40.106Z,99.90
2023-05-01T17:58:09.553Z,99.90
2023-05-01T18:00:37.559Z,99.90
2023-05-01T18:03:06.037Z,99.90
2023-05-01T18:05:34.150Z,99.90
2023-05-01T18:08:02.125Z,99.90
2023-05-01T18:10:31.216Z,99.90
2023-05-01T18:12:59.407Z,99.90
2023-05-01T18:15:28.847Z,99.90
2023-05-01T18:17:56.904Z,99.90
2023-05-01T18:20:25.521Z,99.90
2023-05-01T18:22:54.302Z,99.90
2023-05-01T18:25:22.464Z,99.90
2023-05-01T18:27:50.836Z,99.90
2023-05-01T18:30:18.972Z,99.90
2023-05-01T18:32:49.268Z,99.90
2023-05-01T18:35:18.936Z,99.90
2023-05-01T18:37:47.083Z,99.90
2023-05-01T18:40:15.102Z,99.90
2023-05-01T18:42:43.457Z,99.90
2023-05-01T18:45:12.044Z,99.90
2023-05-01T18:47:40.164Z,99.90
2023-05-01T18:50:11.427Z,99.90
2023-05-01T18:52:39.498Z,99.90
2023-05-01T18:55:10.153Z,99.90
2023-05-01T18:57:38.153Z,99.90
2023-05-01T19:00:08.051Z,99.90
2023-05-01T19:02:36.780Z,99.90
2023-05-01T19:05:05.424Z,99.90
2023-05-01T19:07:34.759Z,99.90
2023-05-01T19:10:03.159Z,99.90
2023-05-01T19:12:31.170Z,99.90
2023-05-01T19:14:59.328Z,99.90
2023-05-01T19:17:27.735Z,99.90
2023-05-01T19:19:55.911Z,99.90
2023-05-01T19:22:23.900Z,99.90
2023-05-01T19:24:53.297Z,99.90
2023-05-01T19:27:21.429Z,99.90
2023-05-01T19:29:52.513Z,99.90
2023-05-01T19:32:20.663Z,99.90
2023-05-01T19:34:48.811Z,99.90
2023-05-01T19:37:16.955Z,99.90
2023-05-01T19:39:45.185Z,99.90
2023-05-01T19:42:15.255Z,99.90
2023-05-01T19:44:43.458Z,99.90
2023-05-01T19:47:11.501Z,99.90
2023-05-01T19:49:39.748Z,99.90
2023-05-01T19:52:07.910Z,99.90
2023-05-01T19:54:36.325Z,99.90
2023-05-01T19:57:04.449Z,99.90
2023-05-01T19:59:36.291Z,99.90
2023-05-01T20:02:05.466Z,99.90
2023-05-01T20:04:33.681Z,99.90
2023-05-01T20:07:02.686Z,99.90
2023-05-01T20:09:31.093Z,99.90
2023-05-01T20:11:59.069Z,99.90
2023-05-01T20:14:27.880Z,99.90
2023-05-01T20:16:57.554Z,99.90
2023-05-01T20:19:26.097Z,99.90
2023-05-01T20:21:54.200Z,99.90
2023-05-01T20:24:22.366Z,99.90
2023-05-01T20:26:53.858Z,99.90
2023-05-01T20:29:21.892Z,99.90
2023-05-01T20:31:51.399Z,99.90
2023-05-01T20:34:21.238Z,99.90
2023-05-01T20:36:49.367Z,99.90
2023-05-01T20:39:17.359Z,99.90
2023-05-01T20:41:46.047Z,99.90
2023-05-01T20:44:14.001Z,99.90
2023-05-01T20:46:43.423Z,99.90
2023-05-01T20:49:15.737Z,99.90
2023-05-01T20:51:45.449Z,99.90
2023-05-01T20:54:13.497Z,99.90
2023-05-01T20:56:41.679Z,99.90
2023-05-01T20:59:09.693Z,99.90
2023-05-01T21:01:37.866Z,99.90
2023-05-01T21:04:07.211Z,99.90
2023-05-01T21:06:35.493Z,99.90
2023-05-01T21:09:06.137Z,99.90
2023-05-01T21:11:35.514Z,99.90
2023-05-01T21:14:03.508Z,99.90
2023-05-01T21:16:32.217Z,99.90
2023-05-01T21:19:00.285Z,99.90
2023-05-01T21:21:29.003Z,99.90
2023-05-01T21:23:57.024Z,99.90
2023-05-01T21:26:26.564Z,99.90
2023-05-01T21:28:54.568Z,99.90
2023-05-01T21:31:23.153Z,99.90
2023-05-01T21:33:52.237Z,99.90
2023-05-01T21:36:20.814Z,99.90
2023-05-01T21:38:48.812Z,99.90
2023-05-01T21:41:16.890Z,99.90
2023-05-01T21:43:46.343Z,99.90
2023-05-01T21:46:17.217Z,99.90
2023-05-01T21:48:50.532Z,99.90
2023-05-01T21:51:19.020Z,99.90
2023-05-01T21:53:47.120Z,99.90
2023-05-01T21:56:15.603Z,99.90
2023-05-01T21:58:43.888Z,99.90
2023-05-01T22:01:16.859Z,99.90
2023-05-01T22:03:45.872Z,99.90
2023-05-01T22:06:14.007Z,99.90
2023-05-01T22:08:42.013Z,99.90
2023-05-01T22:11:10.077Z,99.90
2023-05-01T22:13:38.100Z,99.90
2023-05-01T22:16:06.750Z,99.90
2023-05-01T22:18:36.566Z,99.90
2023-05-01T22:21:04.790Z,99.90
2023-05-01T22:23:32.800Z,99.90
2023-05-01T22:26:00.966Z,99.90
2023-05-01T22:28:29.055Z,99.90
2023-05-01T22:30:57.116Z,99.90
2023-05-01T22:33:25.149Z,99.90
2023-05-01T22:35:54.470Z,99.90
2023-05-01T22:38:22.551Z,99.90
2023-05-01T22:40:50.587Z,99.90
2023-05-01T22:43:18.842Z,99.90
2023-05-01T22:45:46.813Z,99.90
2023-05-01T22:48:14.906Z,99.90
2023-05-01T22:50:43.787Z,99.90
2023-05-01T22:53:13.691Z,99.90
2023-05-01T22:55:41.646Z,99.90
2023-05-01T22:58:09.700Z,99.90
2023-05-01T23:00:37.848Z,99.90
2023-05-01T23:03:05.926Z,99.90
2023-05-01T23:05:34.033Z,99.90
2023-05-01T23:08:02.029Z,99.90
2023-05-01T23:10:33.549Z,99.90
2023-05-01T23:13:01.882Z,99.90
2023-05-01T23:15:29.880Z,99.90
2023-05-01T23:17:58.210Z,99.90
2023-05-01T23:20:26.199Z,99.90
2023-05-01T23:22:54.765Z,99.90
2023-05-01T23:25:25.512Z,99.90
2023-05-01T23:27:56.377Z,99.90
2023-05-01T23:30:24.758Z,99.90
2023-05-01T23:32:53.192Z,99.90
2023-05-01T23:35:24.296Z,99.90
2023-05-01T23:37:53.653Z,99.90
2023-05-01T23:40:22.080Z,99.90
2023-05-01T23:42:52.727Z,99.90
2023-05-01T23:45:22.285Z,99.90
2023-05-01T23:47:50.469Z,99.90
2023-05-01T23:50:18.665Z,99.90
2023-05-01T23:52:47.159Z,99.90
2023-05-01T23:55:15.575Z,99.90
2023-05-01T23:57:43.640Z,99.90
